sensor_id;sensor_type;location;lat;lon;timestamp;temperature;humidity
8939;DHT22;4504;48.810;9.172;2022-09-17T00:00:59;13.00;99.90
8939;DHT22;4504;48.810;9.172;2022-09-17T00:03:26;13.10;99.90
8939;DHT22;4504;48.810;9.172;2022-09-17T00:05:58;13.10;99.90
8939;DHT22;4504;48.810;9.172;2022-09-17T00:08:26;13.10;99.90
8939;DHT22;4504;48.810;9.172;2022-09-17T00:10:53;13.10;99.90
8939;DHT22;4504;48.810;9.172;2022-09-17T00:13:20;13.00;99.90
8939;DHT22;4504;48.810;9.172;2022-09-17T00:15:47;13.10;99.90
8939;DHT22;4504;48.810;9.172;2022-09-17T00:18:15;13.10;99.90
8939;DHT22;4504;48.810;9.172;2022-09-17T00:20:44;13.00;99.90
8939;DHT22;4504;48.810;9.172;2022-09-17T00:23:13;13.10;99.90
8939;DHT22;4504;48.810;9.172;2022-09-17T00:25:41;13.10;99.90
8939;DHT22;4504;48.810;9.172;2022-09-17T00:28:09;13.10;99.90
8939;DHT22;4504;48.810;9.172;2022-09-17T00:30:38;13.10;99.90
8939;DHT22;4504;48.810;9.172;2022-09-17T00:33:05;13.10;99.90
8939;DHT22;4504;48.810;9.172;2022-09-17T00:35:33;13.10;99.90
8939;DHT22;4504;48.810;9.172;2022-09-17T00:38:00;13.10;99.90
8939;DHT22;4504;48.810;9.172;2022-09-17T00:40:27;13.10;99.90
8939;DHT22;4504;48.810;9.172;2022-09-17T00:42:54;13.10;99.90
8939;DHT22;4504;48.810;9.172;2022-09-17T00:45:22;13.20;99.90
8939;DHT22;4504;48.810;9.172;2022-09-17T00:47:52;13.10;99.90
8939;DHT22;4504;48.810;9.172;2022-09-17T00:50:26;13.00;99.90
8939;DHT22;4504;48.810;9.172;2022-09-17T00:52:56;13.00;99.90
8939;DHT22;4504;48.810;9.172;2022-09-17T00:55:27;12.90;99.90
8939;DHT22;4504;48.810;9.172;2022-09-17T00:57:57;12.90;99.90
8939;DHT22;4504;48.810;9.172;2022-09-17T01:00:25;12.90;99.90
8939;DHT22;4504;48.810;9.172;2022-09-17T01:02:53;12.90;99.90
8939;DHT22;4504;48.810;9.172;2022-09-17T01:05:27;13.00;99.90
8939;DHT22;4504;48.810;9.172;2022-09-17T01:08:06;12.80;99.90
8939;DHT22;4504;48.810;9.172;2022-09-17T01:10:46;12.70;99.90
8939;DHT22;4504;48.810;9.172;2022-09-17T01:13:21;12.70;99.90
8939;DHT22;4504;48.810;9.172;2022-09-17T01:15:58;12.70;99.90
8939;DHT22;4504;48.810;9.172;2022-09-17T01:18:36;12.80;99.90
8939;DHT22;4504;48.810;9.172;2022-09-17T01:21:34;12.80;99.90
8939;DHT22;4504;48.810;9.172;2022-09-17T01:27:32;12.80;99.90
8939;DHT22;4504;48.810;9.172;2022-09-17T01:30:18;12.80;99.90
8939;DHT22;4504;48.810;9.172;2022-09-17T01:32:51;12.70;99.90
8939;DHT22;4504;48.810;9.172;2022-09-17T01:35:28;12.70;99.90
8939;DHT22;4504;48.810;9.172;2022-09-17T01:38:02;12.70;99.90
8939;DHT22;4504;48.810;9.172;2022-09-17T01:40:37;12.70;99.90
8939;DHT22;4504;48.810;9.172;2022-09-17T01:43:10;12.70;99.90
8939;DHT22;4504;48.810;9.172;2022-09-17T01:45:42;12.60;99.90
8939;DHT22;4504;48.810;9.172;2022-09-17T01:48:15;12.60;99.90
8939;DHT22;4504;48.810;9.172;2022-09-17T01:50:48;12.60;99.90
8939;DHT22;4504;48.810;9.172;2022-09-17T01:53:19;12.60;99.90
8939;DHT22;4504;48.810;9.172;2022-09-17T01:55:48;12.50;99.90
8939;DHT22;4504;48.810;9.172;2022-09-17T01:58:20;12.50;99.90
8939;DHT22;4504;48.810;9.172;2022-09-17T02:00:50;12.60;99.90
8939;DHT22;4504;48.810;9.172;2022-09-17T02:03:23;12.50;99.90
8939;DHT22;4504;48.810;9.172;2022-09-17T02:05:58;12.60;99.90
8939;DHT22;4504;48.810;9.172;2022-09-17T02:08:31;12.60;99.90
8939;DHT22;4504;48.810;9.172;2022-09-17T02:11:06;12.60;99.90
8939;DHT22;4504;48.810;9.172;2022-09-17T02:13:39;12.50;99.90
8939;DHT22;4504;48.810;9.172;2022-09-17T02:16:11;12.60;99.90
8939;DHT22;4504;48.810;9.172;2022-09-17T02:18:45;12.60;99.90
8939;DHT22;4504;48.810;9.172;2022-09-17T02:21:23;12.50;99.90
8939;DHT22;4504;48.810;9.172;2022-09-17T02:23:59;12.50;99.90
8939;DHT22;4504;48.810;9.172;2022-09-17T02:26:31;12.60;99.90
8939;DHT22;4504;48.810;9.172;2022-09-17T02:29:04;12.50;99.90
8939;DHT22;4504;48.810;9.172;2022-09-17T02:31:32;12.60;99.90
8939;DHT22;4504;48.810;9.172;2022-09-17T02:34:02;12.60;99.90
8939;DHT22;4504;48.810;9.172;2022-09-17T02:36:30;12.50;99.90
8939;DHT22;4504;48.810;9.172;2022-09-17T02:39:02;12.50;99.90
8939;DHT22;4504;48.810;9.172;2022-09-17T02:41:39;12.50;99.90
8939;DHT22;4504;48.810;9.172;2022-09-17T02:44:18;12.50;99.90
8939;DHT22;4504;48.810;9.172;2022-09-17T02:47:10;12.50;99.90
8939;DHT22;4504;48.810;9.172;2022-09-17T02:49:59;12.40;99.90
8939;DHT22;4504;48.810;9.172;2022-09-17T02:52:39;12.40;99.90
8939;DHT22;4504;48.810;9.172;2022-09-17T02:55:14;12.50;99.90
8939;DHT22;4504;48.810;9.172;2022-09-17T02:57:46;12.40;99.90
8939;DHT22;4504;48.810;9.172;2022-09-17T03:00:15;12.40;99.90
8939;DHT22;4504;48.810;9.172;2022-09-17T03:02:45;12.40;99.90
8939;DHT22;4504;48.810;9.172;2022-09-17T03:05:17;12.40;99.90
8939;DHT22;4504;48.810;9.172;2022-09-17T03:07:45;12.50;99.90
8939;DHT22;4504;48.810;9.172;2022-09-17T03:10:12;12.50;99.90
8939;DHT22;4504;48.810;9.172;2022-09-17T03:12:40;12.50;99.90
8939;DHT22;4504;48.810;9.172;2022-09-17T03:15:07;12.50;99.90
8939;DHT22;4504;48.810;9.172;2022-09-17T03:17:35;12.40;99.90
8939;DHT22;4504;48.810;9.172;2022-09-17T03:20:02;12.40;99.90
8939;DHT22;4504;48.810;9.172;2022-09-17T03:22:31;12.30;99.90
8939;DHT22;4504;48.810;9.172;2022-09-17T03:24:58;12.20;99.90
8939;DHT22;4504;48.810;9.172;2022-09-17T03:27:25;12.20;99.90
8939;DHT22;4504;48.810;9.172;2022-09-17T03:29:52;12.10;99.90
8939;DHT22;4504;48.810;9.172;2022-09-17T03:32:19;12.20;99.90
8939;DHT22;4504;48.810;9.172;2022-09-17T03:34:46;12.20;99.90
8939;DHT22;4504;48.810;9.172;2022-09-17T03:37:13;12.20;99.90
8939;DHT22;4504;48.810;9.172;2022-09-17T03:39:41;12.20;99.90
8939;DHT22;4504;48.810;9.172;2022-09-17T03:42:08;12.20;99.90
8939;DHT22;4504;48.810;9.172;2022-09-17T03:44:35;12.10;99.90
8939;DHT22;4504;48.810;9.172;2022-09-17T03:47:03;12.10;99.90
8939;DHT22;4504;48.810;9.172;2022-09-17T03:49:30;12.10;99.90
8939;DHT22;4504;48.810;9.172;2022-09-17T03:51:56;12.10;99.90
8939;DHT22;4504;48.810;9.172;2022-09-17T03:54:24;12.10;99.90
8939;DHT22;4504;48.810;9.172;2022-09-17T03:56:52;12.10;99.90
8939;DHT22;4504;48.810;9.172;2022-09-17T03:59:19;12.00;99.90
8939;DHT22;4504;48.810;9.172;2022-09-17T04:01:47;12.00;99.90
8939;DHT22;4504;48.810;9.172;2022-09-17T04:04:14;11.80;99.90
8939;DHT22;4504;48.810;9.172;2022-09-17T04:06:41;11.80;99.90
8939;DHT22;4504;48.810;9.172;2022-09-17T04:09:08;11.80;99.90
8939;DHT22;4504;48.810;9.172;2022-09-17T04:11:35;11.70;99.90
8939;DHT22;4504;48.810;9.172;2022-09-17T04:14:03;11.80;99.90
8939;DHT22;4504;48.810;9.172;2022-09-17T04:16:30;11.80;99.90
8939;DHT22;4504;48.810;9.172;2022-09-17T04:18:57;11.80;99.90
8939;DHT22;4504;48.810;9.172;2022-09-17T04:21:24;11.70;99.90
8939;DHT22;4504;48.810;9.172;2022-09-17T04:23:51;11.70;99.90
8939;DHT22;4504;48.810;9.172;2022-09-17T04:26:18;11.70;99.90
8939;DHT22;4504;48.810;9.172;2022-09-17T04:28:45;11.70;99.90
8939;DHT22;4504;48.810;9.172;2022-09-17T04:31:14;11.80;99.90
8939;DHT22;4504;48.810;9.172;2022-09-17T04:33:41;11.70;99.90
8939;DHT22;4504;48.810;9.172;2022-09-17T04:36:08;11.70;99.90
8939;DHT22;4504;48.810;9.172;2022-09-17T04:38:35;11.80;99.90
8939;DHT22;4504;48.810;9.172;2022-09-17T04:41:05;11.80;99.90
8939;DHT22;4504;48.810;9.172;2022-09-17T04:43:32;11.80;99.90
8939;DHT22;4504;48.810;9.172;2022-09-17T04:45:59;11.90;99.90
8939;DHT22;4504;48.810;9.172;2022-09-17T04:48:27;11.80;99.90
8939;DHT22;4504;48.810;9.172;2022-09-17T04:50:54;11.80;99.90
8939;DHT22;4504;48.810;9.172;2022-09-17T04:53:21;11.90;99.90
8939;DHT22;4504;48.810;9.172;2022-09-17T04:55:48;11.70;99.90
8939;DHT22;4504;48.810;9.172;2022-09-17T04:58:15;11.80;99.90
8939;DHT22;4504;48.810;9.172;2022-09-17T05:00:42;11.80;99.90
8939;DHT22;4504;48.810;9.172;2022-09-17T05:03:09;11.80;99.90
8939;DHT22;4504;48.810;9.172;2022-09-17T05:05:38;11.80;99.90
8939;DHT22;4504;48.810;9.172;2022-09-17T05:08:05;11.80;99.90
8939;DHT22;4504;48.810;9.172;2022-09-17T05:10:33;11.90;99.90
8939;DHT22;4504;48.810;9.172;2022-09-17T05:13:00;11.90;99.90
8939;DHT22;4504;48.810;9.172;2022-09-17T05:15:27;11.80;99.90
8939;DHT22;4504;48.810;9.172;2022-09-17T05:17:54;11.90;99.90
8939;DHT22;4504;48.810;9.172;2022-09-17T05:20:21;11.80;99.90
8939;DHT22;4504;48.810;9.172;2022-09-17T05:22:50;11.80;99.90
8939;DHT22;4504;48.810;9.172;2022-09-17T05:25:19;11.80;99.90
8939;DHT22;4504;48.810;9.172;2022-09-17T05:27:49;11.80;99.90
8939;DHT22;4504;48.810;9.172;2022-09-17T05:30:17;11.60;99.90
8939;DHT22;4504;48.810;9.172;2022-09-17T05:32:44;11.70;99.90
8939;DHT22;4504;48.810;9.172;2022-09-17T05:35:11;11.70;99.90
8939;DHT22;4504;48.810;9.172;2022-09-17T05:37:38;11.80;99.90
8939;DHT22;4504;48.810;9.172;2022-09-17T05:40:08;11.70;99.90
8939;DHT22;4504;48.810;9.172;2022-09-17T05:42:35;11.70;99.90
8939;DHT22;4504;48.810;9.172;2022-09-17T05:45:03;11.50;99.90
8939;DHT22;4504;48.810;9.172;2022-09-17T05:47:30;11.60;99.90
8939;DHT22;4504;48.810;9.172;2022-09-17T05:49:57;11.60;99.90
8939;DHT22;4504;48.810;9.172;2022-09-17T05:52:26;11.60;99.90
8939;DHT22;4504;48.810;9.172;2022-09-17T05:54:54;11.60;99.90
8939;DHT22;4504;48.810;9.172;2022-09-17T05:57:22;11.60;99.90
8939;DHT22;4504;48.810;9.172;2022-09-17T05:59:49;11.50;99.90
8939;DHT22;4504;48.810;9.172;2022-09-17T06:02:16;11.60;99.90
8939;DHT22;4504;48.810;9.172;2022-09-17T06:04:43;11.60;99.90
8939;DHT22;4504;48.810;9.172;2022-09-17T06:07:10;11.60;99.90
8939;DHT22;4504;48.810;9.172;2022-09-17T06:09:37;11.60;99.90
8939;DHT22;4504;48.810;9.172;2022-09-17T06:12:05;11.60;99.90
8939;DHT22;4504;48.810;9.172;2022-09-17T06:14:34;11.50;99.90
8939;DHT22;4504;48.810;9.172;2022-09-17T06:17:01;11.60;99.90
8939;DHT22;4504;48.810;9.172;2022-09-17T06:19:28;11.70;99.90
8939;DHT22;4504;48.810;9.172;2022-09-17T06:21:55;11.50;99.90
8939;DHT22;4504;48.810;9.172;2022-09-17T06:24:22;11.50;99.90
8939;DHT22;4504;48.810;9.172;2022-09-17T06:26:50;11.60;99.90
8939;DHT22;4504;48.810;9.172;2022-09-17T06:29:17;11.60;99.90
8939;DHT22;4504;48.810;9.172;2022-09-17T06:31:46;11.60;99.90
8939;DHT22;4504;48.810;9.172;2022-09-17T06:34:14;11.50;99.90
8939;DHT22;4504;48.810;9.172;2022-09-17T06:36:41;11.60;99.90
8939;DHT22;4504;48.810;9.172;2022-09-17T06:39:07;11.80;99.90
8939;DHT22;4504;48.810;9.172;2022-09-17T06:41:36;11.80;99.90
8939;DHT22;4504;48.810;9.172;2022-09-17T06:44:03;11.90;99.90
8939;DHT22;4504;48.810;9.172;2022-09-17T06:46:30;11.80;99.90
8939;DHT22;4504;48.810;9.172;2022-09-17T06:48:59;11.80;99.90
8939;DHT22;4504;48.810;9.172;2022-09-17T06:51:26;11.90;99.90
8939;DHT22;4504;48.810;9.172;2022-09-17T06:53:53;12.00;99.90
8939;DHT22;4504;48.810;9.172;2022-09-17T06:56:20;12.10;99.90
8939;DHT22;4504;48.810;9.172;2022-09-17T06:58:46;12.10;99.90
8939;DHT22;4504;48.810;9.172;2022-09-17T07:01:13;12.10;99.90
8939;DHT22;4504;48.810;9.172;2022-09-17T07:03:41;12.10;99.90
8939;DHT22;4504;48.810;9.172;2022-09-17T07:06:10;12.00;99.90
8939;DHT22;4504;48.810;9.172;2022-09-17T07:08:37;12.00;99.90
8939;DHT22;4504;48.810;9.172;2022-09-17T07:11:04;12.00;99.90
8939;DHT22;4504;48.810;9.172;2022-09-17T07:13:33;12.00;99.90
8939;DHT22;4504;48.810;9.172;2022-09-17T07:16:01;12.00;99.90
8939;DHT22;4504;48.810;9.172;2022-09-17T07:18:29;11.90;99.90
8939;DHT22;4504;48.810;9.172;2022-09-17T07:20:58;11.90;99.90
8939;DHT22;4504;48.810;9.172;2022-09-17T07:23:28;11.90;99.90
8939;DHT22;4504;48.810;9.172;2022-09-17T07:25:57;11.90;99.90
8939;DHT22;4504;48.810;9.172;2022-09-17T07:28:25;11.90;99.90
8939;DHT22;4504;48.810;9.172;2022-09-17T07:30:52;11.80;99.90
8939;DHT22;4504;48.810;9.172;2022-09-17T07:33:22;11.80;99.90
8939;DHT22;4504;48.810;9.172;2022-09-17T07:35:53;11.80;99.90
8939;DHT22;4504;48.810;9.172;2022-09-17T07:38:24;11.80;99.90
8939;DHT22;4504;48.810;9.172;2022-09-17T07:40:57;11.80;99.90
8939;DHT22;4504;48.810;9.172;2022-09-17T07:43:25;11.70;99.90
8939;DHT22;4504;48.810;9.172;2022-09-17T07:45:52;11.70;99.90
8939;DHT22;4504;48.810;9.172;2022-09-17T07:48:20;11.80;99.90
8939;DHT22;4504;48.810;9.172;2022-09-17T07:50:47;11.80;99.90
8939;DHT22;4504;48.810;9.172;2022-09-17T07:53:14;11.80;99.90
8939;DHT22;4504;48.810;9.172;2022-09-17T07:55:42;11.70;99.90
8939;DHT22;4504;48.810;9.172;2022-09-17T07:58:10;11.80;99.90
8939;DHT22;4504;48.810;9.172;2022-09-17T08:00:37;11.80;99.90
8939;DHT22;4504;48.810;9.172;2022-09-17T08:03:04;11.70;99.90
8939;DHT22;4504;48.810;9.172;2022-09-17T08:05:31;11.80;99.90
8939;DHT22;4504;48.810;9.172;2022-09-17T08:07:58;11.90;99.90
8939;DHT22;4504;48.810;9.172;2022-09-17T08:10:25;11.80;99.90
8939;DHT22;4504;48.810;9.172;2022-09-17T08:12:54;11.80;99.90
8939;DHT22;4504;48.810;9.172;2022-09-17T08:15:24;11.80;99.90
8939;DHT22;4504;48.810;9.172;2022-09-17T08:17:51;11.90;99.90
8939;DHT22;4504;48.810;9.172;2022-09-17T08:20:18;11.90;99.90
8939;DHT22;4504;48.810;9.172;2022-09-17T08:22:45;12.00;99.90
8939;DHT22;4504;48.810;9.172;2022-09-17T08:25:12;11.90;99.90
8939;DHT22;4504;48.810;9.172;2022-09-17T08:27:40;11.90;99.90
8939;DHT22;4504;48.810;9.172;2022-09-17T08:30:08;12.10;99.90
8939;DHT22;4504;48.810;9.172;2022-09-17T08:32:36;12.00;99.90
8939;DHT22;4504;48.810;9.172;2022-09-17T08:35:03;12.10;99.90
8939;DHT22;4504;48.810;9.172;2022-09-17T08:37:30;12.10;99.90
8939;DHT22;4504;48.810;9.172;2022-09-17T08:39:58;12.10;99.90
8939;DHT22;4504;48.810;9.172;2022-09-17T08:42:31;12.20;99.90
8939;DHT22;4504;48.810;9.172;2022-09-17T08:45:02;12.00;99.90
8939;DHT22;4504;48.810;9.172;2022-09-17T08:47:33;12.10;99.90
8939;DHT22;4504;48.810;9.172;2022-09-17T08:50:05;12.10;99.90
8939;DHT22;4504;48.810;9.172;2022-09-17T08:52:45;12.20;99.90
8939;DHT22;4504;48.810;9.172;2022-09-17T08:55:22;12.10;99.90
8939;DHT22;4504;48.810;9.172;2022-09-17T08:58:00;12.20;99.90
8939;DHT22;4504;48.810;9.172;2022-09-17T09:00:35;12.20;99.90
8939;DHT22;4504;48.810;9.172;2022-09-17T09:03:15;12.40;99.90
8939;DHT22;4504;48.810;9.172;2022-09-17T09:05:47;12.40;99.90
8939;DHT22;4504;48.810;9.172;2022-09-17T09:08:24;12.50;99.90
8939;DHT22;4504;48.810;9.172;2022-09-17T09:10:55;12.60;99.90
8939;DHT22;4504;48.810;9.172;2022-09-17T09:13:27;12.60;99.90
8939;DHT22;4504;48.810;9.172;2022-09-17T09:15:58;12.50;99.90
8939;DHT22;4504;48.810;9.172;2022-09-17T09:18:28;12.50;99.90
8939;DHT22;4504;48.810;9.172;2022-09-17T09:21:05;12.50;99.90
8939;DHT22;4504;48.810;9.172;2022-09-17T09:23:52;12.50;99.90
8939;DHT22;4504;48.810;9.172;2022-09-17T09:26:37;12.60;99.90
8939;DHT22;4504;48.810;9.172;2022-09-17T09:29:16;12.50;99.90
8939;DHT22;4504;48.810;9.172;2022-09-17T09:31:59;12.60;99.90
8939;DHT22;4504;48.810;9.172;2022-09-17T09:34:37;12.50;99.90
8939;DHT22;4504;48.810;9.172;2022-09-17T09:37:11;12.60;99.90
8939;DHT22;4504;48.810;9.172;2022-09-17T09:39:41;12.60;99.90
8939;DHT22;4504;48.810;9.172;2022-09-17T09:42:18;12.60;99.90
8939;DHT22;4504;48.810;9.172;2022-09-17T09:44:48;12.70;99.90
8939;DHT22;4504;48.810;9.172;2022-09-17T09:50:25;12.80;99.90
8939;DHT22;4504;48.810;9.172;2022-09-17T09:53:04;12.80;99.90
8939;DHT22;4504;48.810;9.172;2022-09-17T09:55:53;12.80;99.90
8939;DHT22;4504;48.810;9.172;2022-09-17T09:58:30;12.80;99.90
8939;DHT22;4504;48.810;9.172;2022-09-17T10:00:59;12.90;99.90
8939;DHT22;4504;48.810;9.172;2022-09-17T10:03:28;13.00;99.90
8939;DHT22;4504;48.810;9.172;2022-09-17T10:05:57;13.00;99.90
8939;DHT22;4504;48.810;9.172;2022-09-17T10:08:28;13.20;99.90
8939;DHT22;4504;48.810;9.172;2022-09-17T10:10:57;13.20;99.90
8939;DHT22;4504;48.810;9.172;2022-09-17T10:13:27;13.30;99.90
8939;DHT22;4504;48.810;9.172;2022-09-17T10:15:54;13.30;99.90
8939;DHT22;4504;48.810;9.172;2022-09-17T10:18:23;13.40;99.90
8939;DHT22;4504;48.810;9.172;2022-09-17T10:20:52;13.20;99.90
8939;DHT22;4504;48.810;9.172;2022-09-17T10:23:21;13.30;99.90
8939;DHT22;4504;48.810;9.172;2022-09-17T10:25:51;13.40;99.90
8939;DHT22;4504;48.810;9.172;2022-09-17T10:28:45;13.50;99.90
8939;DHT22;4504;48.810;9.172;2022-09-17T10:31:14;13.60;99.90
8939;DHT22;4504;48.810;9.172;2022-09-17T10:33:55;13.60;99.90
8939;DHT22;4504;48.810;9.172;2022-09-17T10:36:38;13.70;99.90
8939;DHT22;4504;48.810;9.172;2022-09-17T10:39:36;13.90;99.90
8939;DHT22;4504;48.810;9.172;2022-09-17T10:42:14;13.80;99.90
8939;DHT22;4504;48.810;9.172;2022-09-17T10:44:50;13.90;99.90
8939;DHT22;4504;48.810;9.172;2022-09-17T10:47:20;13.90;99.90
8939;DHT22;4504;48.810;9.172;2022-09-17T10:49:52;13.90;99.90
8939;DHT22;4504;48.810;9.172;2022-09-17T10:52:24;14.10;99.90
8939;DHT22;4504;48.810;9.172;2022-09-17T10:55:17;14.00;99.80
8939;DHT22;4504;48.810;9.172;2022-09-17T10:58:10;14.10;99.60
8939;DHT22;4504;48.810;9.172;2022-09-17T11:00:47;14.10;99.70
8939;DHT22;4504;48.810;9.172;2022-09-17T11:03:43;14.10;99.60
8939;DHT22;4504;48.810;9.172;2022-09-17T11:06:25;14.00;99.60
8939;DHT22;4504;48.810;9.172;2022-09-17T11:09:03;14.10;99.10
8939;DHT22;4504;48.810;9.172;2022-09-17T11:11:44;14.00;99.50
8939;DHT22;4504;48.810;9.172;2022-09-17T11:17:30;14.20;99.60
8939;DHT22;4504;48.810;9.172;2022-09-17T11:20:04;14.40;99.30
8939;DHT22;4504;48.810;9.172;2022-09-17T11:22:41;14.50;98.40
8939;DHT22;4504;48.810;9.172;2022-09-17T11:25:32;14.40;97.70
8939;DHT22;4504;48.810;9.172;2022-09-17T11:28:13;14.50;97.70
8939;DHT22;4504;48.810;9.172;2022-09-17T11:30:58;14.50;97.70
8939;DHT22;4504;48.810;9.172;2022-09-17T11:33:52;14.60;98.20
8939;DHT22;4504;48.810;9.172;2022-09-17T11:36:26;14.70;98.20
8939;DHT22;4504;48.810;9.172;2022-09-17T11:38:58;14.70;97.30
8939;DHT22;4504;48.810;9.172;2022-09-17T11:41:38;14.80;97.50
8939;DHT22;4504;48.810;9.172;2022-09-17T11:44:11;14.90;97.40
8939;DHT22;4504;48.810;9.172;2022-09-17T11:46:42;14.90;97.00
8939;DHT22;4504;48.810;9.172;2022-09-17T11:49:32;14.90;96.50
8939;DHT22;4504;48.810;9.172;2022-09-17T11:52:05;14.90;95.80
8939;DHT22;4504;48.810;9.172;2022-09-17T11:54:39;15.10;96.40
8939;DHT22;4504;48.810;9.172;2022-09-17T11:57:12;15.10;95.70
8939;DHT22;4504;48.810;9.172;2022-09-17T11:59:45;15.00;95.80
8939;DHT22;4504;48.810;9.172;2022-09-17T12:02:21;15.10;95.90
8939;DHT22;4504;48.810;9.172;2022-09-17T12:04:56;15.10;95.80
8939;DHT22;4504;48.810;9.172;2022-09-17T12:07:39;15.00;95.20
8939;DHT22;4504;48.810;9.172;2022-09-17T12:10:28;15.00;95.30
8939;DHT22;4504;48.810;9.172;2022-09-17T12:13:02;14.90;95.60
8939;DHT22;4504;48.810;9.172;2022-09-17T12:15:34;14.90;96.90
8939;DHT22;4504;48.810;9.172;2022-09-17T12:18:18;14.90;99.10
8939;DHT22;4504;48.810;9.172;2022-09-17T12:20:48;14.90;99.90
8939;DHT22;4504;48.810;9.172;2022-09-17T12:23:21;14.90;99.90
8939;DHT22;4504;48.810;9.172;2022-09-17T12:25:58;14.90;99.90
8939;DHT22;4504;48.810;9.172;2022-09-17T12:28:34;14.80;99.90
8939;DHT22;4504;48.810;9.172;2022-09-17T12:31:10;14.80;99.90
8939;DHT22;4504;48.810;9.172;2022-09-17T12:33:44;14.80;99.90
8939;DHT22;4504;48.810;9.172;2022-09-17T12:36:26;14.70;99.90
8939;DHT22;4504;48.810;9.172;2022-09-17T12:42:02;14.90;99.90
8939;DHT22;4504;48.810;9.172;2022-09-17T12:44:51;14.90;99.90
8939;DHT22;4504;48.810;9.172;2022-09-17T12:47:43;14.70;99.90
8939;DHT22;4504;48.810;9.172;2022-09-17T12:50:20;14.60;99.90
8939;DHT22;4504;48.810;9.172;2022-09-17T12:53:05;14.50;99.90
8939;DHT22;4504;48.810;9.172;2022-09-17T12:55:46;14.30;99.90
8939;DHT22;4504;48.810;9.172;2022-09-17T12:58:30;14.20;99.90
8939;DHT22;4504;48.810;9.172;2022-09-17T13:01:04;14.30;99.90
8939;DHT22;4504;48.810;9.172;2022-09-17T13:03:35;14.20;99.90
8939;DHT22;4504;48.810;9.172;2022-09-17T13:06:24;14.10;99.90
8939;DHT22;4504;48.810;9.172;2022-09-17T13:09:05;13.90;99.90
8939;DHT22;4504;48.810;9.172;2022-09-17T13:12:07;13.70;99.90
8939;DHT22;4504;48.810;9.172;2022-09-17T13:17:41;13.20;99.90
8939;DHT22;4504;48.810;9.172;2022-09-17T13:20:15;13.30;99.90
8939;DHT22;4504;48.810;9.172;2022-09-17T13:22:46;13.30;99.90
8939;DHT22;4504;48.810;9.172;2022-09-17T13:25:15;13.40;99.90
8939;DHT22;4504;48.810;9.172;2022-09-17T13:27:43;13.40;99.90
8939;DHT22;4504;48.810;9.172;2022-09-17T13:30:11;13.40;99.90
8939;DHT22;4504;48.810;9.172;2022-09-17T13:32:44;13.50;99.90
8939;DHT22;4504;48.810;9.172;2022-09-17T13:35:49;13.50;99.90
8939;DHT22;4504;48.810;9.172;2022-09-17T13:38:19;13.70;99.90
8939;DHT22;4504;48.810;9.172;2022-09-17T13:40:46;13.60;99.90
8939;DHT22;4504;48.810;9.172;2022-09-17T13:43:16;13.50;99.90
8939;DHT22;4504;48.810;9.172;2022-09-17T13:48:48;13.60;99.90
8939;DHT22;4504;48.810;9.172;2022-09-17T13:54:37;13.80;99.90
8939;DHT22;4504;48.810;9.172;2022-09-17T13:57:10;14.00;99.90
8939;DHT22;4504;48.810;9.172;2022-09-17T13:59:51;14.00;99.90
8939;DHT22;4504;48.810;9.172;2022-09-17T14:02:35;14.20;99.90
8939;DHT22;4504;48.810;9.172;2022-09-17T14:05:23;14.30;99.90
8939;DHT22;4504;48.810;9.172;2022-09-17T14:07:51;14.30;99.90
8939;DHT22;4504;48.810;9.172;2022-09-17T14:10:39;14.30;99.90
8939;DHT22;4504;48.810;9.172;2022-09-17T14:13:40;14.40;99.90
8939;DHT22;4504;48.810;9.172;2022-09-17T14:16:34;14.50;99.90
8939;DHT22;4504;48.810;9.172;2022-09-17T14:19:16;14.60;99.90
8939;DHT22;4504;48.810;9.172;2022-09-17T14:21:56;14.80;99.90
8939;DHT22;4504;48.810;9.172;2022-09-17T14:24:31;14.90;99.90
8939;DHT22;4504;48.810;9.172;2022-09-17T14:27:10;15.00;99.90
8939;DHT22;4504;48.810;9.172;2022-09-17T14:32:34;15.10;99.90
8939;DHT22;4504;48.810;9.172;2022-09-17T14:35:12;15.20;99.90
8939;DHT22;4504;48.810;9.172;2022-09-17T14:37:41;15.30;99.90
8939;DHT22;4504;48.810;9.172;2022-09-17T14:40:10;15.50;99.90
8939;DHT22;4504;48.810;9.172;2022-09-17T14:42:41;15.50;99.60
8939;DHT22;4504;48.810;9.172;2022-09-17T14:45:14;15.50;99.50
8939;DHT22;4504;48.810;9.172;2022-09-17T14:47:42;15.60;99.20
8939;DHT22;4504;48.810;9.172;2022-09-17T14:50:19;15.60;99.50
8939;DHT22;4504;48.810;9.172;2022-09-17T14:52:47;15.70;99.60
8939;DHT22;4504;48.810;9.172;2022-09-17T14:55:17;15.80;99.10
8939;DHT22;4504;48.810;9.172;2022-09-17T14:57:49;15.90;99.20
8939;DHT22;4504;48.810;9.172;2022-09-17T15:00:20;15.70;98.50
8939;DHT22;4504;48.810;9.172;2022-09-17T15:02:53;15.60;98.80
8939;DHT22;4504;48.810;9.172;2022-09-17T15:05:26;15.50;98.80
8939;DHT22;4504;48.810;9.172;2022-09-17T15:08:09;15.50;98.40
8939;DHT22;4504;48.810;9.172;2022-09-17T15:10:46;15.40;98.60
8939;DHT22;4504;48.810;9.172;2022-09-17T15:13:17;15.40;98.50
8939;DHT22;4504;48.810;9.172;2022-09-17T15:16:13;15.50;99.00
8939;DHT22;4504;48.810;9.172;2022-09-17T15:18:47;15.40;98.90
8939;DHT22;4504;48.810;9.172;2022-09-17T15:21:20;15.40;98.80
8939;DHT22;4504;48.810;9.172;2022-09-17T15:23:56;15.30;98.60
8939;DHT22;4504;48.810;9.172;2022-09-17T15:26:27;15.20;98.50
8939;DHT22;4504;48.810;9.172;2022-09-17T15:28:58;15.10;98.50
8939;DHT22;4504;48.810;9.172;2022-09-17T15:31:27;15.00;99.10
8939;DHT22;4504;48.810;9.172;2022-09-17T15:34:10;15.00;99.10
8939;DHT22;4504;48.810;9.172;2022-09-17T15:36:37;14.90;98.90
8939;DHT22;4504;48.810;9.172;2022-09-17T15:39:28;14.80;98.70
8939;DHT22;4504;48.810;9.172;2022-09-17T15:41:56;14.80;98.90
8939;DHT22;4504;48.810;9.172;2022-09-17T15:44:25;14.80;99.30
8939;DHT22;4504;48.810;9.172;2022-09-17T15:46:53;14.80;99.10
8939;DHT22;4504;48.810;9.172;2022-09-17T15:49:29;14.70;99.50
8939;DHT22;4504;48.810;9.172;2022-09-17T15:52:26;14.70;99.30
8939;DHT22;4504;48.810;9.172;2022-09-17T15:54:55;14.70;99.40
8939;DHT22;4504;48.810;9.172;2022-09-17T15:57:23;14.80;99.80
8939;DHT22;4504;48.810;9.172;2022-09-17T15:59:52;14.90;99.70
8939;DHT22;4504;48.810;9.172;2022-09-17T16:02:28;14.90;99.70
8939;DHT22;4504;48.810;9.172;2022-09-17T16:08:19;14.90;99.70
8939;DHT22;4504;48.810;9.172;2022-09-17T16:10:46;15.00;99.10
8939;DHT22;4504;48.810;9.172;2022-09-17T16:13:13;15.00;99.40
8939;DHT22;4504;48.810;9.172;2022-09-17T16:15:41;15.00;99.80
8939;DHT22;4504;48.810;9.172;2022-09-17T16:18:13;14.90;99.10
8939;DHT22;4504;48.810;9.172;2022-09-17T16:20:40;14.80;99.10
8939;DHT22;4504;48.810;9.172;2022-09-17T16:23:07;14.80;99.00
8939;DHT22;4504;48.810;9.172;2022-09-17T16:25:35;14.80;98.50
8939;DHT22;4504;48.810;9.172;2022-09-17T16:28:08;14.80;98.40
8939;DHT22;4504;48.810;9.172;2022-09-17T16:30:36;14.80;98.60
8939;DHT22;4504;48.810;9.172;2022-09-17T16:33:04;14.90;98.50
8939;DHT22;4504;48.810;9.172;2022-09-17T16:35:31;14.90;98.10
8939;DHT22;4504;48.810;9.172;2022-09-17T16:37:58;14.90;98.40
8939;DHT22;4504;48.810;9.172;2022-09-17T16:40:25;14.90;98.30
8939;DHT22;4504;48.810;9.172;2022-09-17T16:42:59;14.90;98.30
8939;DHT22;4504;48.810;9.172;2022-09-17T16:45:26;14.80;98.70
8939;DHT22;4504;48.810;9.172;2022-09-17T16:47:53;14.80;98.80
8939;DHT22;4504;48.810;9.172;2022-09-17T16:50:22;14.80;98.80
8939;DHT22;4504;48.810;9.172;2022-09-17T16:52:49;14.70;99.00
8939;DHT22;4504;48.810;9.172;2022-09-17T16:55:17;14.70;99.00
8939;DHT22;4504;48.810;9.172;2022-09-17T16:57:44;14.80;99.20
8939;DHT22;4504;48.810;9.172;2022-09-17T17:00:14;14.90;99.40
8939;DHT22;4504;48.810;9.172;2022-09-17T17:02:44;14.90;99.20